Ext Las Mercedes, Puerto Rico
Current Conditions -  °F | °C
As of 9:53 PM on Monday 20 Oct 2014 (Local Time) from TJNR Reporting Station
Scattered Clouds Scattered Clouds  
Wind Chill: 82°   Ceiling: Unl
Heat Index: 87°   Visibility: 10mi
Dew Point: 72°   Wind: 8mph
Humidity: 71%   Direction: 70°ENE
Pressure: 29.98"   Gusts: NA
Location:  18.1853°N, 65.8667°W
Report Text: TJNR 210153Z AUTO 07007KT 10SM SCT029 28/22 A2998 RMK AO2 SLP153 T02780222
Loading
Personal Weather Stations






























Interactive Weather Map
Tropical Storm Tracking
New forecast layout! Learn more

10-Day Weather Forecast

Advertisements
Track Severe Weather on mobile